PWSweather.com
Personal Weather Stations
Station Observations
KCTHAMDEN
Dunbar Hill, Hamden, CT 06514

Dunbar HillHamden, CT 06514

Lat: 41.365437, Lon: -72.956532

Elevation: 200

Station Type: Davis Vantage Pro2+

www.hamdenweather.com

High Low Average
Temperature 87.5°F30.8°C 66.6°F19.2°C 76.2°F24.6°C
Dew Point 74.7°F23.7°C 65.7°F18.7°C 70.2°F21.2°C
Winds 4.3 mph 6.9 kmh Calm Calm 1.0 mph SSW1.6 kmh SSW
Wind Gusts 9.0 mph14.5 kmh -- 2.0 mph3.2 kmh
Humidity 98% 58% 83%
Pressure 29.96 in1014.6 mb 29.81 in1009.5 mb -
Precipitation 0.00 in0.0 mm - -
Hour Temp Dew Point Humidity Winds Wind Gusts Pressure Precip Precip Rate Daily Precip Total
12:00 AM 69.3°F20.7°C 67.8°F19.9°C 95% Calm Calm -- 29.83 in1010.2 mb - 0.00 in0.0 mm 0.00 in0.0 mm
12:15 AM 69.3°F20.7°C 67.8°F19.9°C 95% Calm Calm -- 29.83 in1010.2 mb - 0.00 in0.0 mm 0.00 in0.0 mm
12:30 AM 69.2°F20.7°C 67.7°F19.8°C 95% Calm Calm -- 29.83 in1010.2 mb - 0.00 in0.0 mm 0.00 in0.0 mm
12:45 AM 69.2°F20.7°C 67.7°F19.8°C 95% Calm Calm -- 29.83 in1010.2 mb - 0.00 in0.0 mm 0.00 in0.0 mm
01:00 AM 69.1°F20.6°C 67.6°F19.8°C 95% Calm Calm -- 29.83 in1010.2 mb - 0.00 in0.0 mm 0.00 in0.0 mm
01:15 AM 68.9°F20.5°C 67.4°F19.7°C 95% Calm Calm -- 29.83 in1010.2 mb - 0.00 in0.0 mm 0.00 in0.0 mm
01:30 AM 68.7°F20.4°C 67.2°F19.6°C 95% Calm Calm -- 29.83 in1010.2 mb - 0.00 in0.0 mm 0.00 in0.0 mm
01:45 AM 68.5°F20.3°C 67.0°F19.4°C 95% Calm Calm -- 29.83 in1010.2 mb - 0.00 in0.0 mm 0.00 in0.0 mm
02:00 AM 68.2°F20.1°C 67.0°F19.4°C 96% Calm Calm -- 29.83 in1010.2 mb - 0.00 in0.0 mm 0.00 in0.0 mm
02:15 AM 67.9°F19.9°C 66.5°F19.2°C 95% Calm Calm -- 29.82 in1009.8 mb - 0.00 in0.0 mm 0.00 in0.0 mm
02:30 AM 67.7°F19.8°C 66.2°F19.0°C 95% Calm Calm -- 29.82 in1009.8 mb - 0.00 in0.0 mm 0.00 in0.0 mm
02:45 AM 67.4°F19.7°C 66.0°F18.9°C 95% Calm Calm -- 29.82 in1009.8 mb - 0.00 in0.0 mm 0.00 in0.0 mm
03:00 AM 67.6°F19.8°C 66.4°F19.1°C 96% Calm Calm -- 29.82 in1009.8 mb - 0.00 in0.0 mm 0.00 in0.0 mm
03:15 AM 67.7°F19.8°C 66.5°F19.2°C 96% Calm Calm -- 29.81 in1009.5 mb - 0.00 in0.0 mm 0.00 in0.0 mm
03:30 AM 67.8°F19.9°C 66.6°F19.2°C 96% Calm Calm -- 29.81 in1009.5 mb - 0.00 in0.0 mm 0.00 in0.0 mm
03:45 AM 67.9°F19.9°C 66.7°F19.3°C 96% Calm Calm -- 29.81 in1009.5 mb - 0.00 in0.0 mm 0.00 in0.0 mm
04:00 AM 67.9°F19.9°C 66.7°F19.3°C 96% Calm Calm -- 29.82 in1009.8 mb - 0.00 in0.0 mm 0.00 in0.0 mm
04:15 AM 67.8°F19.9°C 66.9°F19.4°C 97% Calm Calm -- 29.81 in1009.5 mb - 0.00 in0.0 mm 0.00 in0.0 mm
04:30 AM 67.7°F19.8°C 66.8°F19.3°C 97% Calm Calm -- 29.81 in1009.5 mb - 0.00 in0.0 mm 0.00 in0.0 mm
04:45 AM 67.6°F19.8°C 66.4°F19.1°C 96% Calm Calm -- 29.82 in1009.8 mb - 0.00 in0.0 mm 0.00 in0.0 mm
05:00 AM 67.4°F19.7°C 66.2°F19.0°C 96% Calm Calm -- 29.82 in1009.8 mb - 0.00 in0.0 mm 0.00 in0.0 mm
05:15 AM 67.2°F19.6°C 66.3°F19.1°C 97% Calm Calm -- 29.82 in1009.8 mb - 0.00 in0.0 mm 0.00 in0.0 mm
05:30 AM 66.9°F19.4°C 65.7°F18.7°C 96% Calm Calm -- 29.82 in1009.8 mb - 0.00 in0.0 mm 0.00 in0.0 mm
05:45 AM 66.8°F19.3°C 65.9°F18.8°C 97% Calm Calm -- 29.82 in1009.8 mb - 0.00 in0.0 mm 0.00 in0.0 mm
06:00 AM 66.6°F19.2°C 65.7°F18.7°C 97% Calm Calm -- 29.83 in1010.2 mb - 0.00 in0.0 mm 0.00 in0.0 mm
06:15 AM 66.6°F19.2°C 65.7°F18.7°C 97% Calm Calm -- 29.84 in1010.5 mb - 0.00 in0.0 mm 0.00 in0.0 mm
06:30 AM 66.6°F19.2°C 65.7°F18.7°C 97% Calm Calm -- 29.84 in1010.5 mb - 0.00 in0.0 mm 0.00 in0.0 mm
06:45 AM 66.6°F19.2°C 65.8°F18.8°C 97% Calm Calm -- 29.84 in1010.5 mb - 0.00 in0.0 mm 0.00 in0.0 mm
07:00 AM 66.8°F19.3°C 65.9°F18.8°C 97% Calm Calm -- 29.84 in1010.5 mb - 0.00 in0.0 mm 0.00 in0.0 mm
07:15 AM 67.3°F19.6°C 66.7°F19.3°C 98% 0.9 mph SE1.4 kmh SE 2.0 mph3.2 kmh 29.85 in1010.8 mb - 0.00 in0.0 mm 0.00 in0.0 mm
07:30 AM 68.4°F20.2°C 67.8°F19.9°C 98% Calm Calm -- 29.85 in1010.8 mb - 0.00 in0.0 mm 0.00 in0.0 mm
07:45 AM 69.8°F21.0°C 69.2°F20.7°C 98% Calm Calm 1.0 mph1.6 kmh 29.86 in1011.2 mb - 0.00 in0.0 mm 0.00 in0.0 mm
08:00 AM 70.6°F21.4°C 70.0°F21.1°C 98% 0.1 mph WSW0.2 kmh WSW 3.0 mph4.8 kmh 29.86 in1011.2 mb - 0.00 in0.0 mm 0.00 in0.0 mm
08:15 AM 70.8°F21.6°C 69.6°F20.9°C 96% 0.1 mph SW0.2 kmh SW 2.0 mph3.2 kmh 29.86 in1011.2 mb - 0.00 in0.0 mm 0.00 in0.0 mm
08:30 AM 71.4°F21.9°C 69.9°F21.1°C 95% 1.5 mph N2.4 kmh N 4.0 mph6.4 kmh 29.86 in1011.2 mb - 0.00 in0.0 mm 0.00 in0.0 mm
08:45 AM 72.8°F22.7°C 71.0°F21.7°C 94% 0.1 mph NE0.2 kmh NE 1.0 mph1.6 kmh 29.87 in1011.5 mb - 0.00 in0.0 mm 0.00 in0.0 mm
09:00 AM 74.9°F23.8°C 71.1°F21.7°C 88% 0.9 mph NNW1.4 kmh NNW 3.0 mph4.8 kmh 29.86 in1011.2 mb - 0.00 in0.0 mm 0.00 in0.0 mm
09:15 AM 76.6°F24.8°C 71.0°F21.7°C 83% 2.1 mph NNE3.4 kmh NNE 5.0 mph8.0 kmh 29.86 in1011.2 mb - 0.00 in0.0 mm 0.00 in0.0 mm
09:30 AM 78.0°F25.6°C 71.0°F21.7°C 79% 2.2 mph W3.5 kmh W 4.0 mph6.4 kmh 29.86 in1011.2 mb - 0.00 in0.0 mm 0.00 in0.0 mm
09:45 AM 79.4°F26.3°C 71.9°F22.2°C 78% 0.6 mph SSW1.0 kmh SSW 4.0 mph6.4 kmh 29.87 in1011.5 mb - 0.00 in0.0 mm 0.00 in0.0 mm
10:00 AM 80.0°F26.7°C 72.1°F22.3°C 77% 2.2 mph N3.5 kmh N 5.0 mph8.0 kmh 29.87 in1011.5 mb - 0.00 in0.0 mm 0.00 in0.0 mm
10:15 AM 80.0°F26.7°C 71.7°F22.1°C 76% 1.1 mph NE1.8 kmh NE 2.0 mph3.2 kmh 29.88 in1011.9 mb - 0.00 in0.0 mm 0.00 in0.0 mm
10:30 AM 80.0°F26.7°C 71.3°F21.8°C 75% 1.9 mph ESE3.1 kmh ESE 4.0 mph6.4 kmh 29.88 in1011.9 mb - 0.00 in0.0 mm 0.00 in0.0 mm
10:45 AM 80.8°F27.1°C 72.5°F22.5°C 76% 2.4 mph SW3.9 kmh SW 3.0 mph4.8 kmh 29.88 in1011.9 mb - 0.00 in0.0 mm 0.00 in0.0 mm
11:00 AM 81.4°F27.4°C 70.7°F21.5°C 70% 3.4 mph N5.5 kmh N 5.0 mph8.0 kmh 29.88 in1011.9 mb - 0.00 in0.0 mm 0.00 in0.0 mm
11:15 AM 81.3°F27.4°C 71.0°F21.7°C 71% 4.0 mph NNE6.4 kmh NNE 4.0 mph6.4 kmh 29.88 in1011.9 mb - 0.00 in0.0 mm 0.00 in0.0 mm
11:30 AM 81.6°F27.6°C 71.3°F21.8°C 71% 4.3 mph S6.9 kmh S 9.0 mph14.5 kmh 29.88 in1011.9 mb - 0.00 in0.0 mm 0.00 in0.0 mm
11:45 AM 82.0°F27.8°C 71.2°F21.8°C 70% 4.2 mph WSW6.8 kmh WSW 5.0 mph8.0 kmh 29.88 in1011.9 mb - 0.00 in0.0 mm 0.00 in0.0 mm
12:00 PM 82.7°F28.2°C 71.9°F22.2°C 70% 3.7 mph N6.0 kmh N 5.0 mph8.0 kmh 29.88 in1011.9 mb - 0.00 in0.0 mm 0.00 in0.0 mm
12:15 PM 83.1°F28.4°C 73.1°F22.8°C 72% 1.6 mph WSW2.6 kmh WSW 6.0 mph9.7 kmh 29.88 in1011.9 mb - 0.00 in0.0 mm 0.00 in0.0 mm
12:30 PM 83.7°F28.7°C 71.1°F21.7°C 66% 2.6 mph W4.2 kmh W 5.0 mph8.0 kmh 29.88 in1011.9 mb - 0.00 in0.0 mm 0.00 in0.0 mm
12:45 PM 84.3°F29.1°C 72.1°F22.3°C 67% 2.3 mph SE3.7 kmh SE 4.0 mph6.4 kmh 29.88 in1011.9 mb - 0.00 in0.0 mm 0.00 in0.0 mm
01:00 PM 84.6°F29.2°C 73.3°F22.9°C 69% 1.4 mph WNW2.3 kmh WNW 3.0 mph4.8 kmh 29.89 in1012.2 mb - 0.00 in0.0 mm 0.00 in0.0 mm
01:15 PM 85.2°F29.6°C 72.6°F22.6°C 66% 2.5 mph N4.0 kmh N 6.0 mph9.7 kmh 29.88 in1011.9 mb - 0.00 in0.0 mm 0.00 in0.0 mm
01:30 PM 85.4°F29.7°C 71.8°F22.1°C 64% 0.7 mph NE1.1 kmh NE 2.0 mph3.2 kmh 29.88 in1011.9 mb - 0.00 in0.0 mm 0.00 in0.0 mm
01:45 PM 85.1°F29.5°C 71.5°F21.9°C 64% 2.3 mph NNW3.7 kmh NNW 4.0 mph6.4 kmh 29.88 in1011.9 mb - 0.00 in0.0 mm 0.00 in0.0 mm
02:00 PM 85.3°F29.6°C 71.8°F22.1°C 64% 0.8 mph SSW1.3 kmh SSW 2.0 mph3.2 kmh 29.88 in1011.9 mb - 0.00 in0.0 mm 0.00 in0.0 mm
02:15 PM 86.1°F30.1°C 72.0°F22.2°C 63% 3.6 mph SSW5.8 kmh SSW 7.0 mph11.3 kmh 29.88 in1011.9 mb - 0.00 in0.0 mm 0.00 in0.0 mm
02:30 PM 85.9°F29.9°C 70.9°F21.6°C 61% 2.9 mph NE4.7 kmh NE 4.0 mph6.4 kmh 29.88 in1011.9 mb - 0.00 in0.0 mm 0.00 in0.0 mm
02:45 PM 85.6°F29.8°C 71.6°F22.0°C 63% 3.1 mph SE5.0 kmh SE 4.0 mph6.4 kmh 29.88 in1011.9 mb - 0.00 in0.0 mm 0.00 in0.0 mm
03:00 PM 85.9°F29.9°C 72.3°F22.4°C 64% 2.1 mph NW3.4 kmh NW 4.0 mph6.4 kmh 29.88 in1011.9 mb - 0.00 in0.0 mm 0.00 in0.0 mm
03:15 PM 85.8°F29.9°C 71.3°F21.8°C 62% 2.1 mph SW3.4 kmh SW 4.0 mph6.4 kmh 29.89 in1012.2 mb - 0.00 in0.0 mm 0.00 in0.0 mm
03:30 PM 86.1°F30.1°C 74.7°F23.7°C 69% 1.0 mph S1.6 kmh S 4.0 mph6.4 kmh 29.88 in1011.9 mb - 0.00 in0.0 mm 0.00 in0.0 mm
03:45 PM 86.5°F30.3°C 74.2°F23.4°C 67% 1.1 mph SW1.8 kmh SW 3.0 mph4.8 kmh 29.88 in1011.9 mb - 0.00 in0.0 mm 0.00 in0.0 mm
04:00 PM 87.0°F30.6°C 72.4°F22.4°C 62% 1.8 mph SW2.9 kmh SW 4.0 mph6.4 kmh 29.88 in1011.9 mb - 0.00 in0.0 mm 0.00 in0.0 mm
04:15 PM 87.2°F30.7°C 71.6°F22.0°C 60% 1.3 mph SE2.1 kmh SE 2.0 mph3.2 kmh 29.88 in1011.9 mb - 0.00 in0.0 mm 0.00 in0.0 mm
04:30 PM 87.5°F30.8°C 70.9°F21.6°C 58% 2.8 mph SSE4.5 kmh SSE 7.0 mph11.3 kmh 29.88 in1011.9 mb - 0.00 in0.0 mm 0.00 in0.0 mm
04:45 PM 87.3°F30.7°C 71.7°F22.1°C 60% 0.7 mph S1.1 kmh S 3.0 mph4.8 kmh 29.88 in1011.9 mb - 0.00 in0.0 mm 0.00 in0.0 mm
05:00 PM 87.5°F30.8°C 72.9°F22.7°C 62% 0.1 mph SSW0.2 kmh SSW 1.0 mph1.6 kmh 29.88 in1011.9 mb - 0.00 in0.0 mm 0.00 in0.0 mm
05:15 PM 87.2°F30.7°C 71.2°F21.8°C 59% 0.6 mph SW1.0 kmh SW 1.0 mph1.6 kmh 29.88 in1011.9 mb - 0.00 in0.0 mm 0.00 in0.0 mm
05:30 PM 86.9°F30.5°C 72.8°F22.7°C 63% 1.0 mph SW1.6 kmh SW 2.0 mph3.2 kmh 29.88 in1011.9 mb - 0.00 in0.0 mm 0.00 in0.0 mm
05:45 PM 86.2°F30.1°C 74.0°F23.3°C 67% 0.2 mph SW0.3 kmh SW -- 29.88 in1011.9 mb - 0.00 in0.0 mm 0.00 in0.0 mm
06:00 PM 85.0°F29.4°C 73.2°F22.9°C 68% Calm Calm -- 29.88 in1011.9 mb - 0.00 in0.0 mm 0.00 in0.0 mm
06:15 PM 83.1°F28.4°C 73.6°F23.1°C 73% Calm Calm -- 29.88 in1011.9 mb - 0.00 in0.0 mm 0.00 in0.0 mm
06:30 PM 81.9°F27.7°C 73.6°F23.1°C 76% 0.1 mph SW0.2 kmh SW -- 29.88 in1011.9 mb - 0.00 in0.0 mm 0.00 in0.0 mm
06:45 PM 80.9°F27.2°C 73.4°F23.0°C 78% Calm Calm -- 29.88 in1011.9 mb - 0.00 in0.0 mm 0.00 in0.0 mm
07:00 PM 80.0°F26.7°C 73.7°F23.2°C 81% Calm Calm -- 29.89 in1012.2 mb - 0.00 in0.0 mm 0.00 in0.0 mm
07:15 PM 79.3°F26.3°C 73.3°F22.9°C 82% Calm Calm -- 29.89 in1012.2 mb - 0.00 in0.0 mm 0.00 in0.0 mm
07:30 PM 78.8°F26.0°C 73.6°F23.1°C 84% Calm Calm -- 29.90 in1012.5 mb - 0.00 in0.0 mm 0.00 in0.0 mm
07:45 PM 78.2°F25.7°C 73.0°F22.8°C 84% Calm Calm -- 29.91 in1012.9 mb - 0.00 in0.0 mm 0.00 in0.0 mm
08:00 PM 77.5°F25.3°C 72.6°F22.6°C 85% Calm Calm -- 29.91 in1012.9 mb - 0.00 in0.0 mm 0.00 in0.0 mm
08:15 PM 76.8°F24.9°C 72.3°F22.4°C 86% Calm Calm -- 29.92 in1013.2 mb - 0.00 in0.0 mm 0.00 in0.0 mm
08:30 PM 76.1°F24.5°C 71.9°F22.2°C 87% Calm Calm -- 29.92 in1013.2 mb - 0.00 in0.0 mm 0.00 in0.0 mm
08:45 PM 75.5°F24.2°C 71.7°F22.1°C 88% Calm Calm -- 29.93 in1013.5 mb - 0.00 in0.0 mm 0.00 in0.0 mm
09:00 PM 75.0°F23.9°C 71.5°F21.9°C 89% Calm Calm -- 29.93 in1013.5 mb - 0.00 in0.0 mm 0.00 in0.0 mm
09:15 PM 74.4°F23.6°C 71.3°F21.8°C 90% Calm Calm -- 29.93 in1013.5 mb - 0.00 in0.0 mm 0.00 in0.0 mm
09:30 PM 74.0°F23.3°C 70.9°F21.6°C 90% Calm Calm -- 29.94 in1013.9 mb - 0.00 in0.0 mm 0.00 in0.0 mm
09:45 PM 73.6°F23.1°C 70.8°F21.6°C 91% Calm Calm -- 29.94 in1013.9 mb - 0.00 in0.0 mm 0.00 in0.0 mm
10:00 PM 73.2°F22.9°C 70.5°F21.4°C 91% Calm Calm -- 29.95 in1014.2 mb - 0.00 in0.0 mm 0.00 in0.0 mm
10:15 PM 73.1°F22.8°C 71.0°F21.7°C 93% Calm Calm -- 29.95 in1014.2 mb - 0.00 in0.0 mm 0.00 in0.0 mm
10:30 PM 72.9°F22.7°C 70.8°F21.6°C 93% Calm Calm -- 29.95 in1014.2 mb - 0.00 in0.0 mm 0.00 in0.0 mm
10:45 PM 72.9°F22.7°C 70.7°F21.5°C 93% Calm Calm -- 29.95 in1014.2 mb - 0.00 in0.0 mm 0.00 in0.0 mm
11:00 PM 72.9°F22.7°C 71.1°F21.7°C 94% Calm Calm 1.0 mph1.6 kmh 29.95 in1014.2 mb - 0.00 in0.0 mm 0.00 in0.0 mm
11:15 PM 72.8°F22.7°C 70.7°F21.5°C 93% Calm Calm -- 29.95 in1014.2 mb - 0.00 in0.0 mm 0.00 in0.0 mm
11:30 PM 72.9°F22.7°C 70.8°F21.6°C 93% Calm Calm -- 29.95 in1014.2 mb - 0.00 in0.0 mm 0.00 in0.0 mm
11:45 PM 72.7°F22.6°C 70.5°F21.4°C 93% Calm Calm -- 29.95 in1014.2 mb - 0.00 in0.0 mm 0.00 in0.0 mm